createdAt,value
2023-03-29T00:02:34.333Z,94.93
2023-03-29T00:12:37.997Z,95.37
2023-03-29T00:22:46.815Z,96.68
2023-03-29T00:32:50.136Z,96.62
2023-03-29T00:42:56.233Z,97.04
2023-03-29T00:53:03.566Z,95.35
2023-03-29T01:03:13.907Z,95.62
2023-03-29T01:13:26.286Z,96.25
2023-03-29T01:23:51.243Z,97.21
2023-03-29T01:34:04.474Z,98.06
2023-03-29T01:44:12.103Z,97.65
2023-03-29T01:54:19.833Z,96.60
2023-03-29T02:04:29.072Z,98.85
2023-03-29T02:14:33.424Z,98.78
2023-03-29T02:24:38.181Z,97.71
2023-03-29T02:34:47.732Z,95.76
2023-03-29T02:44:53.520Z,93.37
2023-03-29T02:55:00.473Z,91.78
2023-03-29T03:05:03.774Z,89.90
2023-03-29T03:15:09.725Z,89.01
2023-03-29T03:25:16.815Z,88.87
2023-03-29T03:35:21.608Z,87.99
2023-03-29T03:45:24.759Z,87.62
2023-03-29T03:55:51.190Z,87.41
2023-03-29T04:06:01.671Z,87.18
2023-03-29T04:16:14.916Z,87.71
2023-03-29T04:26:18.364Z,87.25
2023-03-29T04:36:29.056Z,87.43
2023-03-29T04:46:33.349Z,87.23
2023-03-29T04:56:56.838Z,86.92
2023-03-29T05:07:11.768Z,86.33
2023-03-29T05:17:16.372Z,85.71
2023-03-29T05:27:22.908Z,86.00
2023-03-29T05:37:40.309Z,85.96
2023-03-29T05:47:43.543Z,85.72
2023-03-29T05:57:48.010Z,85.57
2023-03-29T06:07:52.117Z,85.42
2023-03-29T06:18:19.248Z,85.22
2023-03-29T06:28:24.006Z,85.42
2023-03-29T06:38:28.751Z,85.73
2023-03-29T06:48:31.790Z,85.84
2023-03-29T06:58:36.693Z,85.37
2023-03-29T07:08:52.406Z,85.06
2023-03-29T07:19:33.259Z,85.62
2023-03-29T07:29:58.184Z,85.38
2023-03-29T07:40:09.011Z,85.86
2023-03-29T07:50:32.641Z,87.80
2023-03-29T08:00:40.177Z,88.72
2023-03-29T08:11:03.588Z,94.90
2023-03-29T08:21:17.202Z,95.77
2023-03-29T08:31:24.237Z,95.23
2023-03-29T08:41:41.674Z,94.12
2023-03-29T08:51:48.165Z,94.23
2023-03-29T09:01:57.011Z,94.16
2023-03-29T09:12:12.075Z,91.82
2023-03-29T09:22:29.807Z,95.18
2023-03-29T09:32:39.170Z,97.38
2023-03-29T09:42:45.953Z,97.99
2023-03-29T09:52:50.673Z,100.00
2023-03-29T10:03:00.913Z,100.00
2023-03-29T10:13:23.733Z,100.00
2023-03-29T10:23:32.551Z,100.00
2023-03-29T10:33:37.725Z,99.96
2023-03-29T10:43:47.203Z,96.04
2023-03-29T10:53:50.185Z,92.71
2023-03-29T11:04:16.987Z,89.15
2023-03-29T11:14:35.748Z,88.54
2023-03-29T11:24:53.976Z,84.25
2023-03-29T11:35:08.152Z,83.56
2023-03-29T11:45:18.923Z,81.97
2023-03-29T11:55:26.227Z,79.18
2023-03-29T12:05:43.720Z,77.89
2023-03-29T12:15:58.953Z,78.01
2023-03-29T12:26:10.757Z,77.23
2023-03-29T12:36:36.507Z,77.28
2023-03-29T12:47:30.161Z,75.17
2023-03-29T12:57:43.156Z,72.77
2023-03-29T13:07:48.471Z,71.90
2023-03-29T13:18:02.634Z,71.50
2023-03-29T13:28:14.309Z,71.52
2023-03-29T13:38:21.988Z,72.08
2023-03-29T13:48:29.370Z,72.42
2023-03-29T13:58:40.257Z,70.92
2023-03-29T14:08:45.837Z,70.92
2023-03-29T14:18:51.444Z,71.31
2023-03-29T14:28:58.048Z,71.59
2023-03-29T14:39:05.592Z,72.18
2023-03-29T14:49:13.663Z,71.66
2023-03-29T14:59:27.229Z,72.52
2023-03-29T15:09:35.180Z,70.87
2023-03-29T15:19:38.366Z,70.86
2023-03-29T15:29:45.312Z,72.39
2023-03-29T15:39:49.693Z,74.75
2023-03-29T15:49:54.221Z,76.34
2023-03-29T16:00:05.703Z,76.77
2023-03-29T16:10:17.014Z,77.41
2023-03-29T16:20:20.833Z,78.12
2023-03-29T16:30:25.990Z,80.49
2023-03-29T16:40:38.446Z,82.73
2023-03-29T16:50:43.289Z,84.04
2023-03-29T17:00:51.918Z,86.12
2023-03-29T17:10:57.774Z,87.36
2023-03-29T17:21:07.724Z,87.90
2023-03-29T17:31:12.781Z,89.98
2023-03-29T17:41:17.420Z,91.05
2023-03-29T17:51:23.675Z,92.38
2023-03-29T18:01:27.603Z,93.66
2023-03-29T18:11:32.448Z,94.73
2023-03-29T18:21:35.520Z,95.37
2023-03-29T18:31:39.934Z,94.54
2023-03-29T18:41:42.963Z,94.14
2023-03-29T18:51:47.683Z,93.88
2023-03-29T19:01:51.173Z,94.23
2023-03-29T19:11:55.749Z,94.56
2023-03-29T19:22:00.544Z,95.07
2023-03-29T19:32:06.841Z,95.81
2023-03-29T19:42:09.854Z,96.84
2023-03-29T19:52:14.313Z,96.82
2023-03-29T20:02:17.784Z,96.40
2023-03-29T20:12:22.195Z,96.15
2023-03-29T20:22:26.255Z,95.88
2023-03-29T20:32:31.078Z,95.15
2023-03-29T20:42:34.634Z,94.30
2023-03-29T20:52:39.126Z,93.56
2023-03-29T21:02:42.263Z,92.41
2023-03-29T21:12:46.844Z,90.86
2023-03-29T21:22:49.850Z,89.58
2023-03-29T21:32:54.340Z,88.38
2023-03-29T21:42:57.336Z,86.57
2023-03-29T21:53:02.314Z,85.85
2023-03-29T22:03:05.450Z,84.76
2023-03-29T22:13:09.908Z,83.79
2023-03-29T22:23:13.339Z,82.65
2023-03-29T22:33:17.661Z,83.14
2023-03-29T22:43:21.525Z,82.60
2023-03-29T22:53:26.144Z,81.82
2023-03-29T23:03:29.113Z,80.74
2023-03-29T23:13:35.172Z,80.24
2023-03-29T23:23:38.302Z,79.55
2023-03-29T23:33:43.463Z,78.43
2023-03-29T23:43:50.116Z,77.40
2023-03-29T23:53:54.708Z,75.87
